πŸ“Š DonnΓ©es MΓ©tΓ©o - Bordeaux

Total mesures

14,316

TempΓ©rature moyenne

18.8Β°C

Temp. Min/Max

2.9Β° / 42.4Β°

HumiditΓ© moyenne

64.9%

Pression moyenne

1014.7 hPa
enregistrements
ID Date/Heure Temp (Β°C) HumiditΓ© (%) Pression (hPa) Tendance LuminositΓ© (lux) Situation
14316 03/09/2026 17:45 30.8 27.0 1,019.6 β†’ Stable 13,800 chaleur-seche
14315 03/09/2026 17:30 31.0 26.0 1,019.6 β†’ Stable 18,984 chaleur-seche
14314 03/09/2026 17:15 31.2 26.0 1,019.6 β†’ Stable 24,168 chaleur-seche
14313 03/09/2026 17:00 31.4 25.0 1,019.6 β†’ Stable 30,180 chaleur-seche
14312 03/09/2026 16:45 31.5 25.0 1,019.9 β†’ Stable 35,376 chaleur-seche
14311 03/09/2026 16:30 31.9 24.0 1,019.9 β†’ Stable 40,560 chaleur-seche
14310 03/09/2026 16:15 32.0 24.0 1,019.9 β†’ Stable 45,552 chaleur-seche
14309 03/09/2026 15:45 32.0 24.0 1,020.4 β†’ Stable 56,664 chaleur-seche
14308 03/09/2026 15:30 31.6 25.0 1,020.4 β†’ Stable 61,200 chaleur-seche
14307 03/09/2026 15:15 31.5 25.0 1,020.4 β†’ Stable 65,460 chaleur-seche
14306 03/09/2026 14:45 31.3 25.0 1,020.9 β†’ Stable 74,724 chaleur-seche
14305 03/09/2026 14:30 31.2 26.0 1,020.9 β†’ Stable 78,240 chaleur-seche
14304 03/09/2026 14:15 31.0 26.0 1,020.9 β†’ Stable 81,480 chaleur-seche
14303 03/09/2026 13:45 30.6 27.0 1,021.2 β†’ Stable 87,780 chaleur-seche
14302 03/09/2026 13:30 30.3 27.0 1,021.2 β†’ Stable 90,096 chaleur-seche
14301 03/09/2026 13:15 30.0 28.0 1,021.2 β†’ Stable 91,944 chaleur-seche
14300 03/09/2026 12:45 29.3 30.0 1,021.8 β†’ Stable 94,908 conditions-neutrales-ou-non-definies
14299 03/09/2026 12:30 29.1 30.0 1,021.8 β†’ Stable 95,652 conditions-neutrales-ou-non-definies
14298 03/09/2026 12:15 28.7 32.0 1,021.8 β†’ Stable 96,024 confortablement-chaud (approx.)
14297 03/09/2026 12:00 28.3 33.0 1,021.8 β†’ Stable 95,736 confortablement-chaud (approx.)
14296 03/09/2026 11:45 27.8 35.0 1,022.4 β†’ Stable 95,280 confortablement-chaud (approx.)
14295 03/09/2026 11:30 27.4 36.0 1,022.4 β†’ Stable 94,632 confortablement-chaud (approx.)
14294 03/09/2026 11:15 26.9 38.0 1,022.4 β†’ Stable 93,420 confortablement-chaud (approx.)
14293 03/09/2026 10:45 25.8 42.0 1,023.2 β†’ Stable 89,076 confortablement-chaud
14292 03/09/2026 10:30 25.4 42.0 1,023.2 β†’ Stable 87,228 confortablement-chaud
14291 03/09/2026 10:15 24.9 45.0 1,023.2 β†’ Stable 84,624 confortablement-chaud
14290 03/09/2026 09:45 23.9 50.0 1,023.2 β†’ Stable 77,124 confortablement-chaud (approx.)
14289 03/09/2026 09:15 23.0 56.0 1,023.2 β†’ Stable 69,624 frais-stable
14288 03/09/2026 09:00 22.5 59.0 1,023.2 β†’ Stable 63,888 frais-stable
14287 03/09/2026 08:45 22.0 62.0 1,023.3 β†’ Stable 59,628 frais-stable
14286 03/09/2026 08:30 21.0 70.0 1,023.3 β†’ Stable 54,816 pluvieux-gris (approx.)
14285 03/09/2026 08:15 20.5 73.0 1,023.3 β†’ Stable 50,088 pluvieux-gris (approx.)
14284 03/09/2026 07:45 19.5 81.0 1,023.2 β†’ Stable 38,520 pluvieux-gris (approx.)
14283 03/09/2026 07:30 18.4 80.0 1,023.2 β†’ Stable 33,708 pluvieux-gris (approx.)
14282 03/09/2026 07:15 17.5 82.0 1,023.2 β†’ Stable 28,524 pluvieux-gris (approx.)
14281 03/09/2026 06:45 15.9 88.0 1,023.0 β†’ Stable 17,220 pluvieux-gris
14280 03/09/2026 06:30 15.3 88.0 1,023.0 β†’ Stable 12,228 pluvieux-gris
14279 03/09/2026 06:15 14.7 89.0 1,023.0 β†’ Stable 7,404 pluvieux-gris
14278 03/09/2026 05:45 14.2 89.0 1,022.8 β†’ Stable 372 pluvieux-gris
14277 03/09/2026 05:30 14.4 90.0 1,022.8 β†’ Stable 0 pluvieux-gris
14276 03/09/2026 05:15 14.5 90.0 1,022.8 β†’ Stable 0 pluvieux-gris
14275 03/09/2026 05:00 14.6 89.0 1,022.8 β†’ Stable 0 pluvieux-gris
14274 03/09/2026 04:45 14.7 89.0 1,022.5 β†’ Stable 0 pluvieux-gris
14273 03/09/2026 04:30 14.9 89.0 1,022.5 β†’ Stable 0 pluvieux-gris
14272 03/09/2026 04:15 15.0 89.0 1,022.5 β†’ Stable 0 pluvieux-gris
14271 03/09/2026 04:00 15.0 89.0 1,022.5 β†’ Stable 0 pluvieux-gris
14270 03/09/2026 03:45 15.0 89.0 1,022.5 β†’ Stable 0 pluvieux-gris
14269 03/09/2026 03:15 15.1 89.0 1,022.5 β†’ Stable 0 pluvieux-gris
14268 03/09/2026 02:45 15.3 88.0 1,022.4 β†’ Stable 0 pluvieux-gris
14267 03/09/2026 02:30 15.5 87.0 1,022.4 β†’ Stable 0 pluvieux-gris
14266 03/09/2026 02:15 15.5 87.0 1,022.4 β†’ Stable 0 pluvieux-gris
14265 03/09/2026 02:00 15.6 86.0 1,022.4 β†’ Stable 0 pluvieux-gris
14264 03/09/2026 01:45 15.7 86.0 1,022.4 β†’ Stable 0 pluvieux-gris
14263 03/09/2026 01:15 16.1 84.0 1,022.3 β†’ Stable 0 pluvieux-gris (approx.)
14262 03/09/2026 00:45 16.3 83.0 1,022.4 β†’ Stable 0 pluvieux-gris (approx.)
14261 03/09/2026 00:30 16.5 82.0 1,022.4 β†’ Stable 0 pluvieux-gris (approx.)
14260 03/09/2026 00:15 16.7 82.0 1,022.4 β†’ Stable 0 pluvieux-gris (approx.)
14259 02/09/2026 23:45 16.9 81.0 1,022.4 β†’ Stable 0 pluvieux-gris (approx.)
14258 02/09/2026 23:30 17.1 82.0 1,022.4 β†’ Stable 0 pluvieux-gris (approx.)
14257 02/09/2026 23:15 17.3 80.0 1,022.4 β†’ Stable 0 pluvieux-gris (approx.)
14256 02/09/2026 23:00 17.4 80.0 1,022.7 β†’ Stable 0 pluvieux-gris (approx.)
14255 02/09/2026 22:45 17.6 79.0 1,022.4 β†’ Stable 0 pluvieux-gris (approx.)
14254 02/09/2026 22:15 18.1 77.0 1,022.4 β†’ Stable 0 pluvieux-gris (approx.)
14253 02/09/2026 21:45 18.5 74.0 1,022.1 β†’ Stable 0 pluvieux-gris (approx.)
14252 02/09/2026 21:15 19.2 69.0 1,022.1 β†’ Stable 0 frais-stable
14251 02/09/2026 21:00 19.4 68.0 1,022.1 β†’ Stable 0 frais-stable
14250 02/09/2026 20:45 19.6 66.0 1,021.7 β†’ Stable 0 frais-stable
14249 02/09/2026 20:30 20.2 64.0 1,021.7 β†’ Stable 0 frais-stable
14248 02/09/2026 20:15 20.4 62.0 1,021.7 β†’ Stable 0 frais-stable
14247 02/09/2026 20:00 20.6 61.0 1,021.7 β†’ Stable 0 frais-stable
14246 02/09/2026 19:45 20.9 54.0 1,021.1 β†’ Stable 0 frais-stable
14245 02/09/2026 19:30 21.8 52.0 1,021.1 β†’ Stable 0 frais-stable
14244 02/09/2026 19:15 22.1 51.0 1,021.1 β†’ Stable 0 frais-stable
14243 02/09/2026 19:00 22.5 49.0 1,021.1 β†’ Stable 0 frais-stable
14242 02/09/2026 18:45 22.9 48.0 1,020.9 β†’ Stable 96 frais-stable
14241 02/09/2026 18:30 23.3 46.0 1,020.9 β†’ Stable 1,944 conditions-neutrales-ou-non-definies
14240 02/09/2026 18:15 23.8 45.0 1,020.9 β†’ Stable 5,088 conditions-neutrales-ou-non-definies
14239 02/09/2026 17:45 24.6 43.0 1,020.7 β†’ Stable 12,780 confortablement-chaud (approx.)
14238 02/09/2026 17:30 25.0 43.0 1,020.7 β†’ Stable 17,412 confortablement-chaud (approx.)
14237 02/09/2026 17:15 25.4 42.0 1,020.7 β†’ Stable 22,596 confortablement-chaud (approx.)
14236 02/09/2026 16:45 26.2 40.0 1,020.6 β†’ Stable 34,260 confortablement-chaud (approx.)
14235 02/09/2026 16:30 26.6 39.0 1,020.6 β†’ Stable 40,092 conditions-neutrales-ou-non-definies
14234 02/09/2026 16:15 26.9 37.0 1,020.6 β†’ Stable 45,744 conditions-neutrales-ou-non-definies
14233 02/09/2026 15:45 27.6 35.0 1,020.4 β†’ Stable 56,292 conditions-neutrales-ou-non-definies
14232 02/09/2026 15:30 27.9 34.0 1,020.4 β†’ Stable 61,296 conditions-neutrales-ou-non-definies
14231 02/09/2026 15:15 28.2 33.0 1,020.4 β†’ Stable 65,928 conditions-neutrales-ou-non-definies
14230 02/09/2026 15:00 28.4 32.0 1,020.4 β†’ Stable 70,188 confortablement-chaud (approx.)
14229 02/09/2026 14:45 28.6 32.0 1,020.4 β†’ Stable 74,076 confortablement-chaud (approx.)
14228 02/09/2026 14:15 28.7 32.0 1,020.4 β†’ Stable 81,300 confortablement-chaud (approx.)
14227 02/09/2026 13:45 28.4 34.0 1,020.8 β†’ Stable 86,940 confortablement-chaud (approx.)
14226 02/09/2026 13:30 28.2 36.0 1,020.8 β†’ Stable 89,100 confortablement-chaud (approx.)
14225 02/09/2026 13:15 27.9 37.0 1,020.8 β†’ Stable 90,744 confortablement-chaud (approx.)
14224 02/09/2026 13:00 27.6 38.0 1,020.8 β†’ Stable 91,392 confortablement-chaud (approx.)
14223 02/09/2026 12:45 27.3 40.0 1,021.3 β†’ Stable 92,412 confortablement-chaud
14222 02/09/2026 12:15 26.6 42.0 1,021.3 β†’ Stable 93,420 confortablement-chaud
14221 02/09/2026 12:00 26.3 43.0 1,021.3 β†’ Stable 96,948 confortablement-chaud
14220 02/09/2026 11:45 26.0 45.0 1,021.8 β†’ Stable 96,024 confortablement-chaud
14219 02/09/2026 11:30 25.6 46.0 1,021.8 β†’ Stable 93,708 confortablement-chaud
14218 02/09/2026 11:15 25.2 48.0 1,021.8 β†’ Stable 90,000 confortablement-chaud
14217 02/09/2026 10:45 24.3 50.0 1,022.0 β†’ Stable 69,264 confortablement-chaud (approx.)